sensor_id;sensor_type;location;lat;lon;timestamp;P1;durP1;ratioP1;P2;durP2;ratioP2
75912;SDS011;64592;52.168;21.040;2022-11-20T00:04:23;28.23;;;14.05;;
75912;SDS011;64592;52.168;21.040;2022-11-20T00:09:25;25.08;;;10.73;;
75912;SDS011;64592;52.168;21.040;2022-11-20T00:14:28;32.17;;;12.70;;
75912;SDS011;64592;52.168;21.040;2022-11-20T00:19:29;26.40;;;13.23;;
75912;SDS011;64592;52.168;21.040;2022-11-20T00:24:31;27.52;;;13.77;;
75912;SDS011;64592;52.168;21.040;2022-11-20T00:29:34;27.88;;;13.80;;
75912;SDS011;64592;52.168;21.040;2022-11-20T00:34:35;35.35;;;14.63;;
75912;SDS011;64592;52.168;21.040;2022-11-20T00:39:37;25.55;;;11.73;;
75912;SDS011;64592;52.168;21.040;2022-11-20T00:44:39;17.85;;;9.43;;
75912;SDS011;64592;52.168;21.040;2022-11-20T00:49:41;26.90;;;11.82;;
75912;SDS011;64592;52.168;21.040;2022-11-20T00:54:43;24.65;;;12.68;;
75912;SDS011;64592;52.168;21.040;2022-11-20T00:59:45;18.30;;;11.05;;
75912;SDS011;64592;52.168;21.040;2022-11-20T01:04:47;23.52;;;10.77;;
75912;SDS011;64592;52.168;21.040;2022-11-20T01:09:49;21.08;;;10.95;;
75912;SDS011;64592;52.168;21.040;2022-11-20T01:14:51;24.63;;;13.05;;
75912;SDS011;64592;52.168;21.040;2022-11-20T01:19:53;23.83;;;11.38;;
75912;SDS011;64592;52.168;21.040;2022-11-20T01:24:54;24.48;;;10.73;;
75912;SDS011;64592;52.168;21.040;2022-11-20T01:29:57;25.55;;;12.63;;
75912;SDS011;64592;52.168;21.040;2022-11-20T01:34:59;25.95;;;12.50;;
75912;SDS011;64592;52.168;21.040;2022-11-20T01:40:00;25.33;;;12.13;;
75912;SDS011;64592;52.168;21.040;2022-11-20T01:50:38;24.25;;;10.50;;
75912;SDS011;64592;52.168;21.040;2022-11-20T01:55:43;28.13;;;12.75;;
75912;SDS011;64592;52.168;21.040;2022-11-20T02:00:50;28.25;;;14.10;;
75912;SDS011;64592;52.168;21.040;2022-11-20T02:05:53;22.45;;;12.43;;
75912;SDS011;64592;52.168;21.040;2022-11-20T02:10:58;18.55;;;11.57;;
75912;SDS011;64592;52.168;21.040;2022-11-20T02:16:00;19.15;;;8.25;;
75912;SDS011;64592;52.168;21.040;2022-11-20T02:21:05;23.45;;;10.98;;
75912;SDS011;64592;52.168;21.040;2022-11-20T02:26:12;20.25;;;10.73;;
75912;SDS011;64592;52.168;21.040;2022-11-20T02:31:16;23.65;;;12.68;;
75912;SDS011;64592;52.168;21.040;2022-11-20T02:36:18;28.20;;;12.45;;
75912;SDS011;64592;52.168;21.040;2022-11-20T02:41:21;32.20;;;14.88;;
75912;SDS011;64592;52.168;21.040;2022-11-20T02:46:23;18.13;;;12.23;;
75912;SDS011;64592;52.168;21.040;2022-11-20T02:51:24;24.52;;;12.40;;
75912;SDS011;64592;52.168;21.040;2022-11-20T02:56:27;21.67;;;11.63;;
75912;SDS011;64592;52.168;21.040;2022-11-20T03:01:29;28.23;;;11.55;;
75912;SDS011;64592;52.168;21.040;2022-11-20T03:06:31;21.77;;;10.15;;
75912;SDS011;64592;52.168;21.040;2022-11-20T03:11:34;22.83;;;11.20;;
75912;SDS011;64592;52.168;21.040;2022-11-20T03:16:35;14.00;;;8.77;;
75912;SDS011;64592;52.168;21.040;2022-11-20T03:21:37;28.60;;;10.27;;
75912;SDS011;64592;52.168;21.040;2022-11-20T03:31:41;24.77;;;12.50;;
75912;SDS011;64592;52.168;21.040;2022-11-20T03:36:43;36.35;;;16.33;;
75912;SDS011;64592;52.168;21.040;2022-11-20T03:41:47;29.27;;;12.27;;
75912;SDS011;64592;52.168;21.040;2022-11-20T03:46:48;32.40;;;14.77;;
75912;SDS011;64592;52.168;21.040;2022-11-20T03:51:50;35.97;;;13.63;;
75912;SDS011;64592;52.168;21.040;2022-11-20T03:56:53;31.48;;;14.93;;
75912;SDS011;64592;52.168;21.040;2022-11-20T04:01:54;19.15;;;9.32;;
75912;SDS011;64592;52.168;21.040;2022-11-20T04:06:56;41.45;;;14.43;;
75912;SDS011;64592;52.168;21.040;2022-11-20T04:11:59;18.73;;;8.77;;
75912;SDS011;64592;52.168;21.040;2022-11-20T04:17:00;28.25;;;14.05;;
75912;SDS011;64592;52.168;21.040;2022-11-20T04:22:02;30.58;;;10.30;;
75912;SDS011;64592;52.168;21.040;2022-11-20T04:27:05;35.20;;;17.50;;
75912;SDS011;64592;52.168;21.040;2022-11-20T04:32:06;22.60;;;12.23;;
75912;SDS011;64592;52.168;21.040;2022-11-20T04:37:08;14.00;;;8.40;;
75912;SDS011;64592;52.168;21.040;2022-11-20T04:42:11;26.98;;;13.23;;
75912;SDS011;64592;52.168;21.040;2022-11-20T04:47:30;25.90;;;13.30;;
75912;SDS011;64592;52.168;21.040;2022-11-20T04:52:32;32.45;;;13.25;;
75912;SDS011;64592;52.168;21.040;2022-11-20T04:57:35;23.20;;;11.45;;
75912;SDS011;64592;52.168;21.040;2022-11-20T05:02:36;28.58;;;10.05;;
75912;SDS011;64592;52.168;21.040;2022-11-20T05:07:38;24.05;;;11.13;;
75912;SDS011;64592;52.168;21.040;2022-11-20T05:12:41;23.77;;;12.57;;
75912;SDS011;64592;52.168;21.040;2022-11-20T05:17:46;29.15;;;12.35;;
75912;SDS011;64592;52.168;21.040;2022-11-20T05:22:48;32.40;;;13.68;;
75912;SDS011;64592;52.168;21.040;2022-11-20T05:27:51;26.20;;;12.27;;
75912;SDS011;64592;52.168;21.040;2022-11-20T05:32:52;25.67;;;13.60;;
75912;SDS011;64592;52.168;21.040;2022-11-20T05:37:54;29.85;;;13.80;;
75912;SDS011;64592;52.168;21.040;2022-11-20T05:42:57;28.52;;;12.85;;
75912;SDS011;64592;52.168;21.040;2022-11-20T05:47:59;28.63;;;14.68;;
75912;SDS011;64592;52.168;21.040;2022-11-20T05:53:01;24.27;;;12.13;;
75912;SDS011;64592;52.168;21.040;2022-11-20T05:58:03;25.45;;;14.30;;
75912;SDS011;64592;52.168;21.040;2022-11-20T06:03:06;17.20;;;9.25;;
75912;SDS011;64592;52.168;21.040;2022-11-20T06:08:08;21.80;;;10.70;;
75912;SDS011;64592;52.168;21.040;2022-11-20T06:13:11;24.85;;;12.35;;
75912;SDS011;64592;52.168;21.040;2022-11-20T06:18:12;23.02;;;10.35;;
75912;SDS011;64592;52.168;21.040;2022-11-20T06:23:14;20.00;;;11.25;;
75912;SDS011;64592;52.168;21.040;2022-11-20T06:28:17;30.23;;;12.95;;
75912;SDS011;64592;52.168;21.040;2022-11-20T06:33:18;28.08;;;10.10;;
75912;SDS011;64592;52.168;21.040;2022-11-20T06:38:20;28.15;;;13.23;;
75912;SDS011;64592;52.168;21.040;2022-11-20T06:43:23;26.77;;;12.27;;
75912;SDS011;64592;52.168;21.040;2022-11-20T06:48:25;33.30;;;14.70;;
75912;SDS011;64592;52.168;21.040;2022-11-20T06:53:28;23.52;;;9.63;;
75912;SDS011;64592;52.168;21.040;2022-11-20T06:58:31;26.67;;;12.80;;
75912;SDS011;64592;52.168;21.040;2022-11-20T07:03:34;26.17;;;11.50;;
75912;SDS011;64592;52.168;21.040;2022-11-20T07:13:38;20.27;;;11.18;;
75912;SDS011;64592;52.168;21.040;2022-11-20T07:18:40;24.13;;;12.20;;
75912;SDS011;64592;52.168;21.040;2022-11-20T07:23:42;19.08;;;10.70;;
75912;SDS011;64592;52.168;21.040;2022-11-20T07:28:45;20.83;;;11.73;;
75912;SDS011;64592;52.168;21.040;2022-11-20T07:33:46;24.33;;;14.02;;
75912;SDS011;64592;52.168;21.040;2022-11-20T07:38:48;26.45;;;13.98;;
75912;SDS011;64592;52.168;21.040;2022-11-20T07:43:51;20.85;;;9.75;;
75912;SDS011;64592;52.168;21.040;2022-11-20T07:48:52;25.50;;;9.70;;
75912;SDS011;64592;52.168;21.040;2022-11-20T07:53:54;26.13;;;11.15;;
75912;SDS011;64592;52.168;21.040;2022-11-20T07:58:57;19.02;;;11.00;;
75912;SDS011;64592;52.168;21.040;2022-11-20T08:03:58;22.00;;;11.45;;
75912;SDS011;64592;52.168;21.040;2022-11-20T08:09:00;32.88;;;12.10;;
75912;SDS011;64592;52.168;21.040;2022-11-20T08:19:14;26.60;;;12.65;;
75912;SDS011;64592;52.168;21.040;2022-11-20T08:24:17;28.27;;;14.52;;
75912;SDS011;64592;52.168;21.040;2022-11-20T08:29:20;24.60;;;12.02;;
75912;SDS011;64592;52.168;21.040;2022-11-20T08:34:21;33.92;;;15.95;;
75912;SDS011;64592;52.168;21.040;2022-11-20T08:39:23;23.67;;;12.32;;
75912;SDS011;64592;52.168;21.040;2022-11-20T08:44:26;22.75;;;10.23;;
75912;SDS011;64592;52.168;21.040;2022-11-20T08:49:27;31.02;;;12.73;;
75912;SDS011;64592;52.168;21.040;2022-11-20T08:54:29;28.98;;;13.30;;
75912;SDS011;64592;52.168;21.040;2022-11-20T08:59:32;34.30;;;16.73;;
75912;SDS011;64592;52.168;21.040;2022-11-20T09:04:33;23.42;;;11.90;;
75912;SDS011;64592;52.168;21.040;2022-11-20T09:14:37;28.23;;;13.93;;
75912;SDS011;64592;52.168;21.040;2022-11-20T09:19:39;17.63;;;12.52;;
75912;SDS011;64592;52.168;21.040;2022-11-20T09:24:41;32.08;;;14.00;;
75912;SDS011;64592;52.168;21.040;2022-11-20T09:29:44;28.98;;;14.13;;
75912;SDS011;64592;52.168;21.040;2022-11-20T09:34:46;36.95;;;14.18;;
75912;SDS011;64592;52.168;21.040;2022-11-20T09:44:52;34.67;;;15.50;;
75912;SDS011;64592;52.168;21.040;2022-11-20T09:50:10;40.55;;;17.15;;
75912;SDS011;64592;52.168;21.040;2022-11-20T09:55:21;22.35;;;11.63;;
75912;SDS011;64592;52.168;21.040;2022-11-20T10:00:24;28.23;;;12.13;;
75912;SDS011;64592;52.168;21.040;2022-11-20T10:05:30;29.77;;;13.20;;
75912;SDS011;64592;52.168;21.040;2022-11-20T10:10:40;36.67;;;15.68;;
75912;SDS011;64592;52.168;21.040;2022-11-20T10:15:47;35.80;;;15.70;;
75912;SDS011;64592;52.168;21.040;2022-11-20T10:21:03;41.30;;;15.70;;
75912;SDS011;64592;52.168;21.040;2022-11-20T10:26:16;34.22;;;15.63;;
75912;SDS011;64592;52.168;21.040;2022-11-20T10:31:26;30.52;;;14.30;;
75912;SDS011;64592;52.168;21.040;2022-11-20T10:36:33;40.72;;;16.80;;
75912;SDS011;64592;52.168;21.040;2022-11-20T10:41:38;37.92;;;16.20;;
75912;SDS011;64592;52.168;21.040;2022-11-20T10:46:44;38.58;;;15.52;;
75912;SDS011;64592;52.168;21.040;2022-11-20T10:51:51;37.67;;;15.40;;
75912;SDS011;64592;52.168;21.040;2022-11-20T10:57:05;31.58;;;14.50;;
75912;SDS011;64592;52.168;21.040;2022-11-20T11:02:19;33.00;;;15.38;;
75912;SDS011;64592;52.168;21.040;2022-11-20T11:07:23;35.38;;;14.35;;
75912;SDS011;64592;52.168;21.040;2022-11-20T11:12:28;33.58;;;13.50;;
75912;SDS011;64592;52.168;21.040;2022-11-20T11:17:32;26.27;;;12.10;;
75912;SDS011;64592;52.168;21.040;2022-11-20T11:22:39;30.58;;;14.82;;
75912;SDS011;64592;52.168;21.040;2022-11-20T11:27:46;32.90;;;13.98;;
75912;SDS011;64592;52.168;21.040;2022-11-20T11:32:50;35.22;;;16.33;;
75912;SDS011;64592;52.168;21.040;2022-11-20T11:37:52;29.90;;;12.05;;
75912;SDS011;64592;52.168;21.040;2022-11-20T11:42:57;33.05;;;13.00;;
75912;SDS011;64592;52.168;21.040;2022-11-20T11:48:02;29.38;;;12.43;;
75912;SDS011;64592;52.168;21.040;2022-11-20T11:58:15;36.10;;;13.70;;
75912;SDS011;64592;52.168;21.040;2022-11-20T12:03:33;30.08;;;13.80;;
75912;SDS011;64592;52.168;21.040;2022-11-20T12:08:38;28.27;;;13.82;;
75912;SDS011;64592;52.168;21.040;2022-11-20T12:13:48;32.90;;;13.70;;
75912;SDS011;64592;52.168;21.040;2022-11-20T12:18:56;31.23;;;14.50;;
75912;SDS011;64592;52.168;21.040;2022-11-20T12:29:32;29.75;;;13.63;;
75912;SDS011;64592;52.168;21.040;2022-11-20T12:34:46;36.20;;;16.40;;
75912;SDS011;64592;52.168;21.040;2022-11-20T12:39:54;28.67;;;13.57;;
75912;SDS011;64592;52.168;21.040;2022-11-20T12:45:04;27.45;;;12.93;;
75912;SDS011;64592;52.168;21.040;2022-11-20T12:50:22;29.15;;;12.88;;
75912;SDS011;64592;52.168;21.040;2022-11-20T12:55:35;31.63;;;16.20;;
75912;SDS011;64592;52.168;21.040;2022-11-20T13:00:46;39.53;;;16.75;;
75912;SDS011;64592;52.168;21.040;2022-11-20T13:05:55;33.78;;;16.92;;
75912;SDS011;64592;52.168;21.040;2022-11-20T13:11:05;40.55;;;17.50;;
75912;SDS011;64592;52.168;21.040;2022-11-20T13:16:15;30.20;;;16.83;;
75912;SDS011;64592;52.168;21.040;2022-11-20T13:21:35;32.50;;;15.48;;
75912;SDS011;64592;52.168;21.040;2022-11-20T13:26:38;33.17;;;17.95;;
75912;SDS011;64592;52.168;21.040;2022-11-20T13:31:42;34.40;;;15.65;;
75912;SDS011;64592;52.168;21.040;2022-11-20T13:36:50;27.83;;;15.25;;
75912;SDS011;64592;52.168;21.040;2022-11-20T13:41:54;30.05;;;14.35;;
75912;SDS011;64592;52.168;21.040;2022-11-20T13:46:56;36.13;;;15.85;;
75912;SDS011;64592;52.168;21.040;2022-11-20T13:52:03;26.77;;;11.93;;
75912;SDS011;64592;52.168;21.040;2022-11-20T14:03:08;31.85;;;14.60;;
75912;SDS011;64592;52.168;21.040;2022-11-20T14:08:18;30.20;;;14.52;;
75912;SDS011;64592;52.168;21.040;2022-11-20T14:13:26;35.17;;;15.15;;
75912;SDS011;64592;52.168;21.040;2022-11-20T14:18:28;32.70;;;14.65;;
75912;SDS011;64592;52.168;21.040;2022-11-20T14:23:30;36.67;;;16.77;;
75912;SDS011;64592;52.168;21.040;2022-11-20T14:28:32;35.20;;;16.77;;
75912;SDS011;64592;52.168;21.040;2022-11-20T14:33:34;37.78;;;16.63;;
75912;SDS011;64592;52.168;21.040;2022-11-20T14:38:37;34.65;;;15.30;;
75912;SDS011;64592;52.168;21.040;2022-11-20T14:43:40;35.40;;;16.10;;
75912;SDS011;64592;52.168;21.040;2022-11-20T14:48:48;42.85;;;17.70;;
75912;SDS011;64592;52.168;21.040;2022-11-20T14:53:53;31.02;;;15.50;;
75912;SDS011;64592;52.168;21.040;2022-11-20T14:58:55;29.08;;;12.77;;
75912;SDS011;64592;52.168;21.040;2022-11-20T15:03:59;36.53;;;17.05;;
75912;SDS011;64592;52.168;21.040;2022-11-20T15:09:03;35.50;;;14.88;;
75912;SDS011;64592;52.168;21.040;2022-11-20T15:14:06;40.83;;;16.83;;
75912;SDS011;64592;52.168;21.040;2022-11-20T15:19:08;32.83;;;14.23;;
75912;SDS011;64592;52.168;21.040;2022-11-20T15:24:18;34.75;;;16.23;;
75912;SDS011;64592;52.168;21.040;2022-11-20T15:29:19;31.52;;;14.55;;
75912;SDS011;64592;52.168;21.040;2022-11-20T15:34:26;35.78;;;15.82;;
75912;SDS011;64592;52.168;21.040;2022-11-20T15:39:29;38.45;;;15.35;;
75912;SDS011;64592;52.168;21.040;2022-11-20T15:44:31;32.95;;;15.43;;
75912;SDS011;64592;52.168;21.040;2022-11-20T15:49:32;34.58;;;14.73;;
75912;SDS011;64592;52.168;21.040;2022-11-20T15:54:35;37.13;;;16.27;;
75912;SDS011;64592;52.168;21.040;2022-11-20T15:59:37;31.83;;;14.43;;
75912;SDS011;64592;52.168;21.040;2022-11-20T16:04:41;37.35;;;13.73;;
75912;SDS011;64592;52.168;21.040;2022-11-20T16:09:44;41.08;;;17.08;;
75912;SDS011;64592;52.168;21.040;2022-11-20T16:14:45;29.25;;;13.40;;
75912;SDS011;64592;52.168;21.040;2022-11-20T16:20:05;35.10;;;14.20;;
75912;SDS011;64592;52.168;21.040;2022-11-20T16:25:08;32.45;;;14.02;;
75912;SDS011;64592;52.168;21.040;2022-11-20T16:30:10;32.38;;;14.50;;
75912;SDS011;64592;52.168;21.040;2022-11-20T16:35:12;30.88;;;14.02;;
75912;SDS011;64592;52.168;21.040;2022-11-20T16:40:15;35.33;;;15.18;;
75912;SDS011;64592;52.168;21.040;2022-11-20T16:45:17;20.55;;;9.70;;
75912;SDS011;64592;52.168;21.040;2022-11-20T16:50:19;32.45;;;14.93;;
75912;SDS011;64592;52.168;21.040;2022-11-20T17:00:23;27.35;;;11.02;;
75912;SDS011;64592;52.168;21.040;2022-11-20T17:10:30;35.17;;;13.85;;
75912;SDS011;64592;52.168;21.040;2022-11-20T17:15:32;26.52;;;14.30;;
75912;SDS011;64592;52.168;21.040;2022-11-20T17:25:36;33.47;;;13.85;;
75912;SDS011;64592;52.168;21.040;2022-11-20T17:30:38;40.38;;;14.18;;
75912;SDS011;64592;52.168;21.040;2022-11-20T17:35:39;21.88;;;10.70;;
75912;SDS011;64592;52.168;21.040;2022-11-20T17:45:45;33.08;;;13.27;;
75912;SDS011;64592;52.168;21.040;2022-11-20T17:55:55;29.50;;;14.07;;
75912;SDS011;64592;52.168;21.040;2022-11-20T18:01:14;29.75;;;12.65;;
75912;SDS011;64592;52.168;21.040;2022-11-20T18:06:17;30.58;;;14.80;;
75912;SDS011;64592;52.168;21.040;2022-11-20T18:11:22;32.03;;;12.90;;
75912;SDS011;64592;52.168;21.040;2022-11-20T18:16:25;40.13;;;14.65;;
75912;SDS011;64592;52.168;21.040;2022-11-20T18:21:27;33.15;;;14.38;;
75912;SDS011;64592;52.168;21.040;2022-11-20T18:26:31;32.42;;;13.45;;
75912;SDS011;64592;52.168;21.040;2022-11-20T18:31:33;31.83;;;13.38;;
75912;SDS011;64592;52.168;21.040;2022-11-20T18:36:35;35.72;;;15.07;;
75912;SDS011;64592;52.168;21.040;2022-11-20T18:46:57;22.33;;;10.02;;
75912;SDS011;64592;52.168;21.040;2022-11-20T18:57:01;32.42;;;12.65;;
75912;SDS011;64592;52.168;21.040;2022-11-20T19:02:03;35.15;;;13.93;;
75912;SDS011;64592;52.168;21.040;2022-11-20T19:07:05;36.65;;;14.02;;
75912;SDS011;64592;52.168;21.040;2022-11-20T19:12:10;38.40;;;14.82;;
75912;SDS011;64592;52.168;21.040;2022-11-20T19:17:12;31.13;;;13.32;;
75912;SDS011;64592;52.168;21.040;2022-11-20T19:22:14;47.58;;;16.55;;
75912;SDS011;64592;52.168;21.040;2022-11-20T19:32:18;34.70;;;15.40;;
75912;SDS011;64592;52.168;21.040;2022-11-20T19:37:20;38.40;;;16.98;;
75912;SDS011;64592;52.168;21.040;2022-11-20T19:42:22;44.30;;;16.52;;
75912;SDS011;64592;52.168;21.040;2022-11-20T19:47:24;39.63;;;17.48;;
75912;SDS011;64592;52.168;21.040;2022-11-20T19:52:26;41.70;;;17.45;;
75912;SDS011;64592;52.168;21.040;2022-11-20T19:57:28;33.60;;;14.07;;
75912;SDS011;64592;52.168;21.040;2022-11-20T20:02:30;37.97;;;15.40;;
75912;SDS011;64592;52.168;21.040;2022-11-20T20:07:31;44.75;;;17.23;;
75912;SDS011;64592;52.168;21.040;2022-11-20T20:17:36;42.17;;;16.70;;
75912;SDS011;64592;52.168;21.040;2022-11-20T20:27:40;42.13;;;17.27;;
75912;SDS011;64592;52.168;21.040;2022-11-20T20:32:42;44.97;;;17.58;;
75912;SDS011;64592;52.168;21.040;2022-11-20T20:42:46;37.88;;;15.05;;
75912;SDS011;64592;52.168;21.040;2022-11-20T20:47:47;38.40;;;15.40;;
75912;SDS011;64592;52.168;21.040;2022-11-20T20:52:49;42.50;;;17.45;;
75912;SDS011;64592;52.168;21.040;2022-11-20T21:02:54;44.70;;;16.55;;
75912;SDS011;64592;52.168;21.040;2022-11-20T21:13:15;47.78;;;19.10;;
75912;SDS011;64592;52.168;21.040;2022-11-20T21:18:17;39.67;;;15.60;;
75912;SDS011;64592;52.168;21.040;2022-11-20T21:23:20;45.55;;;18.00;;
75912;SDS011;64592;52.168;21.040;2022-11-20T21:28:23;48.55;;;18.98;;
75912;SDS011;64592;52.168;21.040;2022-11-20T21:33:25;41.58;;;18.48;;
75912;SDS011;64592;52.168;21.040;2022-11-20T21:43:29;39.65;;;17.52;;
75912;SDS011;64592;52.168;21.040;2022-11-20T21:48:31;45.67;;;17.85;;
75912;SDS011;64592;52.168;21.040;2022-11-20T21:53:34;42.63;;;19.85;;
75912;SDS011;64592;52.168;21.040;2022-11-20T21:58:37;47.30;;;19.98;;
75912;SDS011;64592;52.168;21.040;2022-11-20T22:03:40;50.42;;;18.85;;
75912;SDS011;64592;52.168;21.040;2022-11-20T22:08:42;39.80;;;17.23;;
75912;SDS011;64592;52.168;21.040;2022-11-20T22:13:46;53.95;;;21.77;;
75912;SDS011;64592;52.168;21.040;2022-11-20T22:24:07;47.95;;;19.20;;
75912;SDS011;64592;52.168;21.040;2022-11-20T22:29:14;45.67;;;18.65;;
75912;SDS011;64592;52.168;21.040;2022-11-20T22:34:16;56.80;;;20.20;;
75912;SDS011;64592;52.168;21.040;2022-11-20T22:39:18;46.38;;;19.13;;
75912;SDS011;64592;52.168;21.040;2022-11-20T22:44:23;48.65;;;20.90;;
75912;SDS011;64592;52.168;21.040;2022-11-20T22:49:24;45.75;;;20.40;;
75912;SDS011;64592;52.168;21.040;2022-11-20T22:59:28;41.63;;;17.33;;
75912;SDS011;64592;52.168;21.040;2022-11-20T23:04:30;43.40;;;19.10;;
75912;SDS011;64592;52.168;21.040;2022-11-20T23:09:32;41.15;;;20.38;;
75912;SDS011;64592;52.168;21.040;2022-11-20T23:19:36;50.10;;;20.48;;
75912;SDS011;64592;52.168;21.040;2022-11-20T23:24:37;57.88;;;22.63;;
75912;SDS011;64592;52.168;21.040;2022-11-20T23:29:40;48.78;;;19.20;;
75912;SDS011;64592;52.168;21.040;2022-11-20T23:34:42;51.53;;;21.77;;
75912;SDS011;64592;52.168;21.040;2022-11-20T23:39:43;47.67;;;21.92;;
75912;SDS011;64592;52.168;21.040;2022-11-20T23:44:46;50.13;;;21.30;;
75912;SDS011;64592;52.168;21.040;2022-11-20T23:49:48;55.85;;;22.90;;
75912;SDS011;64592;52.168;21.040;2022-11-20T23:54:49;48.80;;;20.02;;
75912;SDS011;64592;52.168;21.040;2022-11-20T23:59:52;61.28;;;23.55;;
